sensor_id;sensor_type;location;lat;lon;timestamp;P1;durP1;ratioP1;P2;durP2;ratioP2
12780;SDS011;6454;43.304;24.344;2022-09-09T00:00:48;8.65;;;5.80;;
12780;SDS011;6454;43.304;24.344;2022-09-09T00:03:22;7.22;;;5.80;;
12780;SDS011;6454;43.304;24.344;2022-09-09T00:05:54;6.22;;;5.63;;
12780;SDS011;6454;43.304;24.344;2022-09-09T00:08:33;7.30;;;5.90;;
12780;SDS011;6454;43.304;24.344;2022-09-09T00:11:10;7.35;;;5.82;;
12780;SDS011;6454;43.304;24.344;2022-09-09T00:13:40;5.97;;;5.45;;
12780;SDS011;6454;43.304;24.344;2022-09-09T00:16:14;7.63;;;6.00;;
12780;SDS011;6454;43.304;24.344;2022-09-09T00:18:48;6.47;;;5.72;;
12780;SDS011;6454;43.304;24.344;2022-09-09T00:21:23;5.68;;;5.18;;
12780;SDS011;6454;43.304;24.344;2022-09-09T00:23:58;6.65;;;6.05;;
12780;SDS011;6454;43.304;24.344;2022-09-09T00:26:30;6.32;;;5.70;;
12780;SDS011;6454;43.304;24.344;2022-09-09T00:29:03;6.82;;;5.95;;
12780;SDS011;6454;43.304;24.344;2022-09-09T00:31:41;7.03;;;6.32;;
12780;SDS011;6454;43.304;24.344;2022-09-09T00:34:09;6.80;;;6.13;;
12780;SDS011;6454;43.304;24.344;2022-09-09T00:36:39;6.70;;;6.10;;
12780;SDS011;6454;43.304;24.344;2022-09-09T00:39:10;6.57;;;5.97;;
12780;SDS011;6454;43.304;24.344;2022-09-09T00:41:47;6.68;;;6.07;;
12780;SDS011;6454;43.304;24.344;2022-09-09T00:44:27;6.72;;;6.13;;
12780;SDS011;6454;43.304;24.344;2022-09-09T00:47:04;8.68;;;6.03;;
12780;SDS011;6454;43.304;24.344;2022-09-09T00:49:47;6.60;;;5.45;;
12780;SDS011;6454;43.304;24.344;2022-09-09T00:52:30;7.15;;;6.05;;
12780;SDS011;6454;43.304;24.344;2022-09-09T00:55:05;7.15;;;5.78;;
12780;SDS011;6454;43.304;24.344;2022-09-09T00:57:40;6.43;;;5.82;;
12780;SDS011;6454;43.304;24.344;2022-09-09T01:00:17;9.35;;;6.25;;
12780;SDS011;6454;43.304;24.344;2022-09-09T01:02:52;6.63;;;5.88;;
12780;SDS011;6454;43.304;24.344;2022-09-09T01:05:30;10.82;;;6.05;;
12780;SDS011;6454;43.304;24.344;2022-09-09T01:08:05;8.35;;;6.30;;
12780;SDS011;6454;43.304;24.344;2022-09-09T01:10:41;6.63;;;6.03;;
12780;SDS011;6454;43.304;24.344;2022-09-09T01:13:17;7.30;;;5.88;;
12780;SDS011;6454;43.304;24.344;2022-09-09T01:15:49;6.38;;;5.88;;
12780;SDS011;6454;43.304;24.344;2022-09-09T01:18:19;5.95;;;5.35;;
12780;SDS011;6454;43.304;24.344;2022-09-09T01:20:52;6.72;;;6.00;;
12780;SDS011;6454;43.304;24.344;2022-09-09T01:23:30;5.70;;;5.20;;
12780;SDS011;6454;43.304;24.344;2022-09-09T01:26:26;7.07;;;5.43;;
12780;SDS011;6454;43.304;24.344;2022-09-09T01:28:56;6.88;;;5.68;;
12780;SDS011;6454;43.304;24.344;2022-09-09T01:31:26;6.20;;;5.65;;
12780;SDS011;6454;43.304;24.344;2022-09-09T01:33:56;6.07;;;5.35;;
12780;SDS011;6454;43.304;24.344;2022-09-09T01:36:26;6.10;;;5.57;;
12780;SDS011;6454;43.304;24.344;2022-09-09T01:38:59;6.63;;;5.97;;
12780;SDS011;6454;43.304;24.344;2022-09-09T01:41:27;8.93;;;5.78;;
12780;SDS011;6454;43.304;24.344;2022-09-09T01:43:54;6.00;;;5.40;;
12780;SDS011;6454;43.304;24.344;2022-09-09T01:46:22;6.32;;;5.53;;
12780;SDS011;6454;43.304;24.344;2022-09-09T01:48:50;6.97;;;5.88;;
12780;SDS011;6454;43.304;24.344;2022-09-09T01:51:19;6.78;;;5.38;;
12780;SDS011;6454;43.304;24.344;2022-09-09T01:53:46;6.60;;;5.20;;
12780;SDS011;6454;43.304;24.344;2022-09-09T01:56:17;7.97;;;6.05;;
12780;SDS011;6454;43.304;24.344;2022-09-09T01:59:03;5.30;;;4.90;;
12780;SDS011;6454;43.304;24.344;2022-09-09T02:01:43;5.72;;;5.13;;
12780;SDS011;6454;43.304;24.344;2022-09-09T02:04:23;6.63;;;5.68;;
12780;SDS011;6454;43.304;24.344;2022-09-09T02:07:01;5.55;;;5.07;;
12780;SDS011;6454;43.304;24.344;2022-09-09T02:09:29;6.03;;;5.43;;
12780;SDS011;6454;43.304;24.344;2022-09-09T02:11:57;6.07;;;5.47;;
12780;SDS011;6454;43.304;24.344;2022-09-09T02:14:34;7.57;;;5.40;;
12780;SDS011;6454;43.304;24.344;2022-09-09T02:17:07;5.85;;;5.30;;
12780;SDS011;6454;43.304;24.344;2022-09-09T02:19:37;11.27;;;5.70;;
12780;SDS011;6454;43.304;24.344;2022-09-09T02:22:09;6.40;;;5.65;;
12780;SDS011;6454;43.304;24.344;2022-09-09T02:24:37;7.03;;;5.97;;
12780;SDS011;6454;43.304;24.344;2022-09-09T02:27:06;6.75;;;6.05;;
12780;SDS011;6454;43.304;24.344;2022-09-09T02:29:37;7.13;;;5.57;;
12780;SDS011;6454;43.304;24.344;2022-09-09T02:32:07;10.52;;;5.95;;
12780;SDS011;6454;43.304;24.344;2022-09-09T02:34:39;6.82;;;6.22;;
12780;SDS011;6454;43.304;24.344;2022-09-09T02:37:09;6.75;;;6.10;;
12780;SDS011;6454;43.304;24.344;2022-09-09T02:39:38;9.02;;;6.30;;
12780;SDS011;6454;43.304;24.344;2022-09-09T02:42:05;8.48;;;6.43;;
12780;SDS011;6454;43.304;24.344;2022-09-09T02:44:33;6.43;;;5.82;;
12780;SDS011;6454;43.304;24.344;2022-09-09T02:47:07;7.05;;;6.05;;
12780;SDS011;6454;43.304;24.344;2022-09-09T02:49:44;6.82;;;6.22;;
12780;SDS011;6454;43.304;24.344;2022-09-09T02:52:26;8.57;;;6.10;;
12780;SDS011;6454;43.304;24.344;2022-09-09T02:54:59;9.27;;;6.05;;
12780;SDS011;6454;43.304;24.344;2022-09-09T02:57:33;7.18;;;6.05;;
12780;SDS011;6454;43.304;24.344;2022-09-09T03:00:03;6.45;;;5.85;;
12780;SDS011;6454;43.304;24.344;2022-09-09T03:02:33;7.40;;;6.70;;
12780;SDS011;6454;43.304;24.344;2022-09-09T03:05:00;10.00;;;6.10;;
12780;SDS011;6454;43.304;24.344;2022-09-09T03:07:27;6.63;;;6.00;;
12780;SDS011;6454;43.304;24.344;2022-09-09T03:09:54;13.13;;;6.00;;
12780;SDS011;6454;43.304;24.344;2022-09-09T03:12:21;7.70;;;6.90;;
12780;SDS011;6454;43.304;24.344;2022-09-09T03:14:47;8.02;;;6.97;;
12780;SDS011;6454;43.304;24.344;2022-09-09T03:17:14;10.57;;;6.97;;
12780;SDS011;6454;43.304;24.344;2022-09-09T03:19:43;7.75;;;6.60;;
12780;SDS011;6454;43.304;24.344;2022-09-09T03:22:10;14.30;;;6.00;;
12780;SDS011;6454;43.304;24.344;2022-09-09T03:24:38;7.40;;;6.70;;
12780;SDS011;6454;43.304;24.344;2022-09-09T03:27:05;9.18;;;6.45;;
12780;SDS011;6454;43.304;24.344;2022-09-09T03:29:32;7.10;;;6.40;;
12780;SDS011;6454;43.304;24.344;2022-09-09T03:31:59;9.13;;;6.43;;
12780;SDS011;6454;43.304;24.344;2022-09-09T03:34:26;9.02;;;6.40;;
12780;SDS011;6454;43.304;24.344;2022-09-09T03:36:56;6.90;;;6.22;;
12780;SDS011;6454;43.304;24.344;2022-09-09T03:39:23;8.80;;;6.55;;
12780;SDS011;6454;43.304;24.344;2022-09-09T03:41:50;9.38;;;6.05;;
12780;SDS011;6454;43.304;24.344;2022-09-09T03:44:17;7.22;;;6.47;;
12780;SDS011;6454;43.304;24.344;2022-09-09T03:46:44;6.72;;;5.90;;
12780;SDS011;6454;43.304;24.344;2022-09-09T03:49:11;6.38;;;5.78;;
12780;SDS011;6454;43.304;24.344;2022-09-09T03:51:38;6.07;;;5.47;;
12780;SDS011;6454;43.304;24.344;2022-09-09T03:54:07;7.95;;;5.65;;
12780;SDS011;6454;43.304;24.344;2022-09-09T03:56:35;6.30;;;5.70;;
12780;SDS011;6454;43.304;24.344;2022-09-09T03:59:02;6.13;;;5.32;;
12780;SDS011;6454;43.304;24.344;2022-09-09T04:01:30;5.90;;;5.40;;
12780;SDS011;6454;43.304;24.344;2022-09-09T04:03:57;9.18;;;5.45;;
12780;SDS011;6454;43.304;24.344;2022-09-09T04:06:24;7.07;;;5.00;;
12780;SDS011;6454;43.304;24.344;2022-09-09T04:08:51;6.63;;;5.70;;
12780;SDS011;6454;43.304;24.344;2022-09-09T04:11:20;6.10;;;5.55;;
12780;SDS011;6454;43.304;24.344;2022-09-09T04:13:47;5.30;;;4.78;;
12780;SDS011;6454;43.304;24.344;2022-09-09T04:16:14;5.63;;;5.13;;
12780;SDS011;6454;43.304;24.344;2022-09-09T04:18:42;7.25;;;5.18;;
12780;SDS011;6454;43.304;24.344;2022-09-09T04:21:09;6.35;;;5.25;;
12780;SDS011;6454;43.304;24.344;2022-09-09T04:23:37;9.00;;;5.43;;
12780;SDS011;6454;43.304;24.344;2022-09-09T04:26:04;6.57;;;5.30;;
12780;SDS011;6454;43.304;24.344;2022-09-09T04:28:34;7.97;;;5.22;;
12780;SDS011;6454;43.304;24.344;2022-09-09T04:31:06;7.93;;;5.70;;
12780;SDS011;6454;43.304;24.344;2022-09-09T04:33:34;6.70;;;5.55;;
12780;SDS011;6454;43.304;24.344;2022-09-09T04:36:02;5.28;;;4.82;;
12780;SDS011;6454;43.304;24.344;2022-09-09T04:38:29;5.15;;;4.75;;
12780;SDS011;6454;43.304;24.344;2022-09-09T04:40:56;8.57;;;5.47;;
12780;SDS011;6454;43.304;24.344;2022-09-09T04:43:23;5.60;;;5.10;;
12780;SDS011;6454;43.304;24.344;2022-09-09T04:45:54;6.57;;;5.15;;
12780;SDS011;6454;43.304;24.344;2022-09-09T04:48:21;7.88;;;5.00;;
12780;SDS011;6454;43.304;24.344;2022-09-09T04:50:56;6.53;;;5.30;;
12780;SDS011;6454;43.304;24.344;2022-09-09T04:53:24;5.40;;;4.93;;
12780;SDS011;6454;43.304;24.344;2022-09-09T04:55:52;6.70;;;4.95;;
12780;SDS011;6454;43.304;24.344;2022-09-09T04:58:19;7.28;;;5.32;;
12780;SDS011;6454;43.304;24.344;2022-09-09T05:00:47;7.18;;;4.75;;
12780;SDS011;6454;43.304;24.344;2022-09-09T05:03:16;5.97;;;4.80;;
12780;SDS011;6454;43.304;24.344;2022-09-09T05:05:43;7.38;;;5.07;;
12780;SDS011;6454;43.304;24.344;2022-09-09T05:08:10;5.88;;;4.88;;
12780;SDS011;6454;43.304;24.344;2022-09-09T05:10:37;6.50;;;4.88;;
12780;SDS011;6454;43.304;24.344;2022-09-09T05:13:07;5.65;;;5.00;;
12780;SDS011;6454;43.304;24.344;2022-09-09T05:15:34;6.80;;;4.88;;
12780;SDS011;6454;43.304;24.344;2022-09-09T05:18:01;6.10;;;4.35;;
12780;SDS011;6454;43.304;24.344;2022-09-09T05:20:30;4.93;;;4.22;;
12780;SDS011;6454;43.304;24.344;2022-09-09T05:22:57;6.40;;;4.60;;
12780;SDS011;6454;43.304;24.344;2022-09-09T05:25:24;4.82;;;4.28;;
12780;SDS011;6454;43.304;24.344;2022-09-09T05:27:52;5.70;;;4.70;;
12780;SDS011;6454;43.304;24.344;2022-09-09T05:30:20;4.97;;;4.40;;
12780;SDS011;6454;43.304;24.344;2022-09-09T05:32:47;7.18;;;4.40;;
12780;SDS011;6454;43.304;24.344;2022-09-09T05:35:14;5.70;;;5.05;;
12780;SDS011;6454;43.304;24.344;2022-09-09T05:37:42;5.53;;;4.82;;
12780;SDS011;6454;43.304;24.344;2022-09-09T05:40:11;6.28;;;4.75;;
12780;SDS011;6454;43.304;24.344;2022-09-09T05:42:38;6.15;;;4.15;;
12780;SDS011;6454;43.304;24.344;2022-09-09T05:45:05;7.00;;;5.25;;
12780;SDS011;6454;43.304;24.344;2022-09-09T05:47:34;5.30;;;4.55;;
12780;SDS011;6454;43.304;24.344;2022-09-09T05:50:02;16.23;;;4.95;;
12780;SDS011;6454;43.304;24.344;2022-09-09T05:52:30;5.85;;;5.15;;
12780;SDS011;6454;43.304;24.344;2022-09-09T05:54:59;10.85;;;5.53;;
12780;SDS011;6454;43.304;24.344;2022-09-09T05:57:26;5.22;;;4.65;;
12780;SDS011;6454;43.304;24.344;2022-09-09T05:59:53;9.63;;;4.70;;
12780;SDS011;6454;43.304;24.344;2022-09-09T06:02:20;5.03;;;4.45;;
12780;SDS011;6454;43.304;24.344;2022-09-09T06:04:47;4.68;;;3.97;;
12780;SDS011;6454;43.304;24.344;2022-09-09T06:07:14;7.13;;;4.50;;
12780;SDS011;6454;43.304;24.344;2022-09-09T06:09:41;5.18;;;4.47;;
12780;SDS011;6454;43.304;24.344;2022-09-09T06:12:10;7.65;;;4.47;;
12780;SDS011;6454;43.304;24.344;2022-09-09T06:14:36;6.50;;;4.28;;
12780;SDS011;6454;43.304;24.344;2022-09-09T06:17:03;6.47;;;4.72;;
12780;SDS011;6454;43.304;24.344;2022-09-09T06:19:31;6.93;;;4.50;;
12780;SDS011;6454;43.304;24.344;2022-09-09T06:21:58;8.65;;;4.55;;
12780;SDS011;6454;43.304;24.344;2022-09-09T06:24:25;7.43;;;4.13;;
12780;SDS011;6454;43.304;24.344;2022-09-09T06:26:52;7.25;;;5.07;;
12780;SDS011;6454;43.304;24.344;2022-09-09T06:29:20;5.53;;;3.75;;
12780;SDS011;6454;43.304;24.344;2022-09-09T06:31:47;4.85;;;4.00;;
12780;SDS011;6454;43.304;24.344;2022-09-09T06:34:14;4.60;;;3.92;;
12780;SDS011;6454;43.304;24.344;2022-09-09T06:36:41;5.97;;;4.13;;
12780;SDS011;6454;43.304;24.344;2022-09-09T06:39:08;4.53;;;3.97;;
12780;SDS011;6454;43.304;24.344;2022-09-09T06:41:36;5.38;;;3.63;;
12780;SDS011;6454;43.304;24.344;2022-09-09T06:44:03;4.32;;;3.90;;
12780;SDS011;6454;43.304;24.344;2022-09-09T06:46:32;5.70;;;3.58;;
12780;SDS011;6454;43.304;24.344;2022-09-09T06:49:00;5.30;;;3.65;;
12780;SDS011;6454;43.304;24.344;2022-09-09T06:51:28;4.70;;;3.40;;
12780;SDS011;6454;43.304;24.344;2022-09-09T06:53:56;5.05;;;3.80;;
12780;SDS011;6454;43.304;24.344;2022-09-09T06:56:25;4.13;;;3.55;;
12780;SDS011;6454;43.304;24.344;2022-09-09T06:58:54;3.40;;;3.10;;
12780;SDS011;6454;43.304;24.344;2022-09-09T07:01:24;3.45;;;3.10;;
12780;SDS011;6454;43.304;24.344;2022-09-09T07:03:53;3.40;;;3.08;;
12780;SDS011;6454;43.304;24.344;2022-09-09T07:06:24;3.67;;;3.38;;
12780;SDS011;6454;43.304;24.344;2022-09-09T07:08:52;3.60;;;3.30;;
12780;SDS011;6454;43.304;24.344;2022-09-09T07:11:22;6.70;;;3.90;;
12780;SDS011;6454;43.304;24.344;2022-09-09T07:13:52;5.72;;;3.95;;
12780;SDS011;6454;43.304;24.344;2022-09-09T07:16:21;3.60;;;3.30;;
12780;SDS011;6454;43.304;24.344;2022-09-09T07:18:49;4.88;;;3.53;;
12780;SDS011;6454;43.304;24.344;2022-09-09T07:21:18;4.93;;;3.58;;
12780;SDS011;6454;43.304;24.344;2022-09-09T07:23:45;4.57;;;3.55;;
12780;SDS011;6454;43.304;24.344;2022-09-09T07:26:13;4.15;;;3.15;;
12780;SDS011;6454;43.304;24.344;2022-09-09T07:28:41;3.85;;;3.00;;
12780;SDS011;6454;43.304;24.344;2022-09-09T07:31:13;3.97;;;3.00;;
12780;SDS011;6454;43.304;24.344;2022-09-09T07:33:42;4.75;;;3.60;;
12780;SDS011;6454;43.304;24.344;2022-09-09T07:36:10;3.08;;;2.83;;
12780;SDS011;6454;43.304;24.344;2022-09-09T07:38:42;4.55;;;3.30;;
12780;SDS011;6454;43.304;24.344;2022-09-09T07:41:12;6.10;;;3.42;;
12780;SDS011;6454;43.304;24.344;2022-09-09T07:43:42;5.22;;;3.30;;
12780;SDS011;6454;43.304;24.344;2022-09-09T07:46:11;4.07;;;3.28;;
12780;SDS011;6454;43.304;24.344;2022-09-09T07:48:43;5.45;;;3.50;;
12780;SDS011;6454;43.304;24.344;2022-09-09T07:51:11;5.32;;;2.80;;
12780;SDS011;6454;43.304;24.344;2022-09-09T07:53:43;4.07;;;3.17;;
12780;SDS011;6454;43.304;24.344;2022-09-09T07:56:11;3.88;;;3.22;;
12780;SDS011;6454;43.304;24.344;2022-09-09T07:58:40;5.28;;;3.50;;
12780;SDS011;6454;43.304;24.344;2022-09-09T08:01:08;7.07;;;3.25;;
12780;SDS011;6454;43.304;24.344;2022-09-09T08:03:36;3.67;;;3.28;;
12780;SDS011;6454;43.304;24.344;2022-09-09T08:06:04;4.93;;;3.40;;
12780;SDS011;6454;43.304;24.344;2022-09-09T08:08:33;5.10;;;3.85;;
12780;SDS011;6454;43.304;24.344;2022-09-09T08:11:05;4.88;;;3.35;;
12780;SDS011;6454;43.304;24.344;2022-09-09T08:13:34;5.85;;;3.50;;
12780;SDS011;6454;43.304;24.344;2022-09-09T08:16:06;4.05;;;3.35;;
12780;SDS011;6454;43.304;24.344;2022-09-09T08:18:34;5.75;;;3.53;;
12780;SDS011;6454;43.304;24.344;2022-09-09T08:21:05;5.28;;;3.50;;
12780;SDS011;6454;43.304;24.344;2022-09-09T08:23:34;5.40;;;3.50;;
12780;SDS011;6454;43.304;24.344;2022-09-09T08:26:04;5.93;;;3.38;;
12780;SDS011;6454;43.304;24.344;2022-09-09T08:28:32;3.83;;;3.10;;
12780;SDS011;6454;43.304;24.344;2022-09-09T08:31:04;4.45;;;3.20;;
12780;SDS011;6454;43.304;24.344;2022-09-09T08:33:33;5.90;;;3.40;;
12780;SDS011;6454;43.304;24.344;2022-09-09T08:36:01;5.07;;;3.30;;
12780;SDS011;6454;43.304;24.344;2022-09-09T08:38:28;3.80;;;3.38;;
12780;SDS011;6454;43.304;24.344;2022-09-09T08:40:57;5.35;;;3.55;;
12780;SDS011;6454;43.304;24.344;2022-09-09T08:43:37;3.85;;;3.33;;
12780;SDS011;6454;43.304;24.344;2022-09-09T08:46:06;3.78;;;3.38;;
12780;SDS011;6454;43.304;24.344;2022-09-09T08:48:44;3.42;;;3.03;;
12780;SDS011;6454;43.304;24.344;2022-09-09T08:51:19;7.32;;;3.55;;
12780;SDS011;6454;43.304;24.344;2022-09-09T08:53:47;3.65;;;3.35;;
12780;SDS011;6454;43.304;24.344;2022-09-09T08:56:22;7.57;;;3.78;;
12780;SDS011;6454;43.304;24.344;2022-09-09T08:58:52;4.57;;;3.58;;
12780;SDS011;6454;43.304;24.344;2022-09-09T09:01:24;4.55;;;3.35;;
12780;SDS011;6454;43.304;24.344;2022-09-09T09:07:05;7.07;;;3.50;;
12780;SDS011;6454;43.304;24.344;2022-09-09T09:09:40;4.03;;;3.47;;
12780;SDS011;6454;43.304;24.344;2022-09-09T09:12:18;7.82;;;3.22;;
12780;SDS011;6454;43.304;24.344;2022-09-09T09:14:47;6.55;;;3.50;;
12780;SDS011;6454;43.304;24.344;2022-09-09T09:17:16;4.72;;;3.30;;
12780;SDS011;6454;43.304;24.344;2022-09-09T09:19:45;4.20;;;3.13;;
12780;SDS011;6454;43.304;24.344;2022-09-09T09:22:15;4.55;;;3.10;;
12780;SDS011;6454;43.304;24.344;2022-09-09T09:24:49;4.90;;;3.10;;
12780;SDS011;6454;43.304;24.344;2022-09-09T09:27:25;6.60;;;3.72;;
12780;SDS011;6454;43.304;24.344;2022-09-09T09:29:59;6.35;;;3.53;;
12780;SDS011;6454;43.304;24.344;2022-09-09T09:32:28;3.70;;;3.40;;
12780;SDS011;6454;43.304;24.344;2022-09-09T09:34:59;3.80;;;3.17;;
12780;SDS011;6454;43.304;24.344;2022-09-09T09:37:34;7.32;;;3.35;;
12780;SDS011;6454;43.304;24.344;2022-09-09T09:40:07;6.28;;;3.42;;
12780;SDS011;6454;43.304;24.344;2022-09-09T09:42:37;7.80;;;3.30;;
12780;SDS011;6454;43.304;24.344;2022-09-09T09:45:14;4.47;;;3.70;;
12780;SDS011;6454;43.304;24.344;2022-09-09T09:47:57;5.93;;;3.72;;
12780;SDS011;6454;43.304;24.344;2022-09-09T09:50:25;4.93;;;4.00;;
12780;SDS011;6454;43.304;24.344;2022-09-09T09:52:55;6.18;;;4.00;;
12780;SDS011;6454;43.304;24.344;2022-09-09T09:55:23;6.05;;;3.95;;
12780;SDS011;6454;43.304;24.344;2022-09-09T09:57:54;5.80;;;3.92;;
12780;SDS011;6454;43.304;24.344;2022-09-09T10:00:28;4.15;;;3.80;;
12780;SDS011;6454;43.304;24.344;2022-09-09T10:02:55;5.15;;;3.92;;
12780;SDS011;6454;43.304;24.344;2022-09-09T10:05:22;6.35;;;4.15;;
12780;SDS011;6454;43.304;24.344;2022-09-09T10:08:00;5.00;;;4.00;;
12780;SDS011;6454;43.304;24.344;2022-09-09T10:10:33;4.68;;;3.95;;
12780;SDS011;6454;43.304;24.344;2022-09-09T10:13:17;4.57;;;3.80;;
12780;SDS011;6454;43.304;24.344;2022-09-09T10:15:52;18.70;;;5.07;;
12780;SDS011;6454;43.304;24.344;2022-09-09T10:18:35;6.10;;;4.00;;
12780;SDS011;6454;43.304;24.344;2022-09-09T10:21:11;6.80;;;4.13;;
12780;SDS011;6454;43.304;24.344;2022-09-09T10:23:52;6.95;;;3.97;;
12780;SDS011;6454;43.304;24.344;2022-09-09T10:26:31;10.35;;;4.35;;
12780;SDS011;6454;43.304;24.344;2022-09-09T10:29:10;7.85;;;4.30;;
12780;SDS011;6454;43.304;24.344;2022-09-09T10:31:52;6.35;;;4.43;;
12780;SDS011;6454;43.304;24.344;2022-09-09T10:34:37;6.47;;;4.90;;
12780;SDS011;6454;43.304;24.344;2022-09-09T10:37:22;8.05;;;4.65;;
12780;SDS011;6454;43.304;24.344;2022-09-09T10:40:05;8.35;;;4.30;;
12780;SDS011;6454;43.304;24.344;2022-09-09T10:42:45;4.50;;;4.10;;
12780;SDS011;6454;43.304;24.344;2022-09-09T10:45:17;5.93;;;4.30;;
12780;SDS011;6454;43.304;24.344;2022-09-09T10:47:54;12.48;;;6.10;;
12780;SDS011;6454;43.304;24.344;2022-09-09T10:53:22;9.35;;;4.57;;
12780;SDS011;6454;43.304;24.344;2022-09-09T10:56:02;9.45;;;4.47;;
12780;SDS011;6454;43.304;24.344;2022-09-09T10:58:35;13.73;;;5.20;;
12780;SDS011;6454;43.304;24.344;2022-09-09T11:01:11;4.60;;;4.20;;
12780;SDS011;6454;43.304;24.344;2022-09-09T11:03:42;8.68;;;4.22;;
12780;SDS011;6454;43.304;24.344;2022-09-09T11:06:14;5.97;;;4.07;;
12780;SDS011;6454;43.304;24.344;2022-09-09T11:08:44;8.77;;;4.53;;
12780;SDS011;6454;43.304;24.344;2022-09-09T11:11:15;5.43;;;4.45;;
12780;SDS011;6454;43.304;24.344;2022-09-09T11:13:48;9.52;;;4.85;;
12780;SDS011;6454;43.304;24.344;2022-09-09T11:16:23;9.90;;;4.97;;
12780;SDS011;6454;43.304;24.344;2022-09-09T11:18:55;8.20;;;4.55;;
12780;SDS011;6454;43.304;24.344;2022-09-09T11:21:27;10.02;;;4.75;;
12780;SDS011;6454;43.304;24.344;2022-09-09T11:24:00;9.63;;;5.25;;
12780;SDS011;6454;43.304;24.344;2022-09-09T11:26:31;10.25;;;4.75;;
12780;SDS011;6454;43.304;24.344;2022-09-09T11:29:18;6.47;;;4.38;;
12780;SDS011;6454;43.304;24.344;2022-09-09T11:32:09;7.35;;;4.63;;
12780;SDS011;6454;43.304;24.344;2022-09-09T11:34:50;8.55;;;4.72;;
12780;SDS011;6454;43.304;24.344;2022-09-09T11:40:25;7.75;;;4.95;;
12780;SDS011;6454;43.304;24.344;2022-09-09T11:43:03;10.23;;;5.15;;
12780;SDS011;6454;43.304;24.344;2022-09-09T11:45:35;9.10;;;4.55;;
12780;SDS011;6454;43.304;24.344;2022-09-09T11:48:04;9.85;;;4.45;;
12780;SDS011;6454;43.304;24.344;2022-09-09T11:50:33;8.95;;;5.10;;
12780;SDS011;6454;43.304;24.344;2022-09-09T11:58:54;11.45;;;4.97;;
12780;SDS011;6454;43.304;24.344;2022-09-09T12:01:27;8.43;;;4.82;;
12780;SDS011;6454;43.304;24.344;2022-09-09T12:06:58;5.03;;;4.38;;
12780;SDS011;6454;43.304;24.344;2022-09-09T12:09:37;6.25;;;4.60;;
12780;SDS011;6454;43.304;24.344;2022-09-09T12:17:53;7.07;;;4.22;;
12780;SDS011;6454;43.304;24.344;2022-09-09T12:20:23;8.45;;;4.40;;
12780;SDS011;6454;43.304;24.344;2022-09-09T12:26:07;7.90;;;4.53;;
12780;SDS011;6454;43.304;24.344;2022-09-09T12:28:50;8.70;;;4.85;;
12780;SDS011;6454;43.304;24.344;2022-09-09T12:31:24;7.82;;;4.32;;
12780;SDS011;6454;43.304;24.344;2022-09-09T12:34:02;10.05;;;4.43;;
12780;SDS011;6454;43.304;24.344;2022-09-09T12:36:37;10.18;;;4.68;;
12780;SDS011;6454;43.304;24.344;2022-09-09T12:39:10;7.15;;;4.53;;
12780;SDS011;6454;43.304;24.344;2022-09-09T12:41:50;12.55;;;4.32;;
12780;SDS011;6454;43.304;24.344;2022-09-09T12:44:22;17.27;;;4.82;;
12780;SDS011;6454;43.304;24.344;2022-09-09T12:46:50;11.50;;;4.53;;
12780;SDS011;6454;43.304;24.344;2022-09-09T12:49:26;5.78;;;4.70;;
12780;SDS011;6454;43.304;24.344;2022-09-09T12:52:01;8.27;;;5.53;;
12780;SDS011;6454;43.304;24.344;2022-09-09T12:54:32;17.45;;;10.05;;
12780;SDS011;6454;43.304;24.344;2022-09-09T12:57:01;13.43;;;8.75;;
12780;SDS011;6454;43.304;24.344;2022-09-09T12:59:34;11.45;;;7.28;;
12780;SDS011;6454;43.304;24.344;2022-09-09T13:02:11;9.05;;;7.93;;
12780;SDS011;6454;43.304;24.344;2022-09-09T13:04:44;14.02;;;10.30;;
12780;SDS011;6454;43.304;24.344;2022-09-09T13:07:13;29.70;;;26.95;;
12780;SDS011;6454;43.304;24.344;2022-09-09T13:09:41;13.60;;;11.95;;
12780;SDS011;6454;43.304;24.344;2022-09-09T13:12:11;13.77;;;5.90;;
12780;SDS011;6454;43.304;24.344;2022-09-09T13:14:43;9.45;;;5.82;;
12780;SDS011;6454;43.304;24.344;2022-09-09T13:17:17;8.38;;;4.95;;
12780;SDS011;6454;43.304;24.344;2022-09-09T13:19:47;7.88;;;5.47;;
12780;SDS011;6454;43.304;24.344;2022-09-09T13:22:21;9.30;;;5.15;;
12780;SDS011;6454;43.304;24.344;2022-09-09T13:24:58;10.02;;;6.22;;
12780;SDS011;6454;43.304;24.344;2022-09-09T13:27:28;9.63;;;6.97;;
12780;SDS011;6454;43.304;24.344;2022-09-09T13:29:59;7.93;;;5.65;;
12780;SDS011;6454;43.304;24.344;2022-09-09T13:32:27;8.07;;;5.30;;
12780;SDS011;6454;43.304;24.344;2022-09-09T13:34:56;5.65;;;4.72;;
12780;SDS011;6454;43.304;24.344;2022-09-09T13:37:28;9.90;;;5.75;;
12780;SDS011;6454;43.304;24.344;2022-09-09T13:39:59;14.60;;;5.38;;
12780;SDS011;6454;43.304;24.344;2022-09-09T13:42:28;5.82;;;5.28;;
12780;SDS011;6454;43.304;24.344;2022-09-09T13:44:57;10.75;;;5.25;;
12780;SDS011;6454;43.304;24.344;2022-09-09T13:47:29;10.05;;;5.20;;
12780;SDS011;6454;43.304;24.344;2022-09-09T13:49:58;10.77;;;7.47;;
12780;SDS011;6454;43.304;24.344;2022-09-09T13:52:45;9.52;;;6.70;;
12780;SDS011;6454;43.304;24.344;2022-09-09T13:55:12;9.90;;;6.35;;
12780;SDS011;6454;43.304;24.344;2022-09-09T13:57:39;14.05;;;7.35;;
12780;SDS011;6454;43.304;24.344;2022-09-09T14:00:17;16.83;;;6.75;;
12780;SDS011;6454;43.304;24.344;2022-09-09T14:02:44;13.68;;;7.65;;
12780;SDS011;6454;43.304;24.344;2022-09-09T14:05:10;12.43;;;7.45;;
12780;SDS011;6454;43.304;24.344;2022-09-09T14:07:38;7.00;;;5.40;;
12780;SDS011;6454;43.304;24.344;2022-09-09T14:10:08;9.38;;;7.70;;
12780;SDS011;6454;43.304;24.344;2022-09-09T14:12:36;13.63;;;5.93;;
12780;SDS011;6454;43.304;24.344;2022-09-09T14:15:03;7.13;;;5.53;;
12780;SDS011;6454;43.304;24.344;2022-09-09T14:17:31;12.93;;;6.80;;
12780;SDS011;6454;43.304;24.344;2022-09-09T14:19:58;13.05;;;7.93;;
12780;SDS011;6454;43.304;24.344;2022-09-09T14:22:25;13.63;;;7.70;;
12780;SDS011;6454;43.304;24.344;2022-09-09T14:24:53;16.25;;;7.30;;
12780;SDS011;6454;43.304;24.344;2022-09-09T14:27:21;11.95;;;5.78;;
12780;SDS011;6454;43.304;24.344;2022-09-09T14:29:48;6.72;;;5.47;;
12780;SDS011;6454;43.304;24.344;2022-09-09T14:32:15;10.23;;;5.03;;
12780;SDS011;6454;43.304;24.344;2022-09-09T14:34:42;5.65;;;5.15;;
12780;SDS011;6454;43.304;24.344;2022-09-09T14:37:09;7.00;;;5.20;;
12780;SDS011;6454;43.304;24.344;2022-09-09T14:39:36;9.32;;;5.18;;
12780;SDS011;6454;43.304;24.344;2022-09-09T14:42:03;9.63;;;5.30;;
12780;SDS011;6454;43.304;24.344;2022-09-09T14:44:32;6.85;;;5.45;;
12780;SDS011;6454;43.304;24.344;2022-09-09T14:46:58;9.43;;;5.55;;
12780;SDS011;6454;43.304;24.344;2022-09-09T14:49:25;8.38;;;5.28;;
12780;SDS011;6454;43.304;24.344;2022-09-09T14:51:52;8.32;;;5.50;;
12780;SDS011;6454;43.304;24.344;2022-09-09T14:54:19;7.28;;;5.10;;
12780;SDS011;6454;43.304;24.344;2022-09-09T14:56:46;8.25;;;5.35;;
12780;SDS011;6454;43.304;24.344;2022-09-09T14:59:13;9.95;;;4.93;;
12780;SDS011;6454;43.304;24.344;2022-09-09T15:01:41;5.82;;;5.00;;
12780;SDS011;6454;43.304;24.344;2022-09-09T15:04:10;9.50;;;5.07;;
12780;SDS011;6454;43.304;24.344;2022-09-09T15:06:39;12.23;;;5.70;;
12780;SDS011;6454;43.304;24.344;2022-09-09T15:09:09;12.60;;;6.03;;
12780;SDS011;6454;43.304;24.344;2022-09-09T15:11:37;9.70;;;5.15;;
12780;SDS011;6454;43.304;24.344;2022-09-09T15:14:04;8.15;;;5.55;;
12780;SDS011;6454;43.304;24.344;2022-09-09T15:16:32;10.95;;;5.80;;
12780;SDS011;6454;43.304;24.344;2022-09-09T15:19:01;9.73;;;6.00;;
12780;SDS011;6454;43.304;24.344;2022-09-09T15:21:30;7.95;;;5.50;;
12780;SDS011;6454;43.304;24.344;2022-09-09T15:23:58;8.93;;;5.57;;
12780;SDS011;6454;43.304;24.344;2022-09-09T15:26:26;8.48;;;5.63;;
12780;SDS011;6454;43.304;24.344;2022-09-09T15:28:55;7.10;;;5.30;;
12780;SDS011;6454;43.304;24.344;2022-09-09T15:31:26;10.00;;;6.25;;
12780;SDS011;6454;43.304;24.344;2022-09-09T15:33:55;9.15;;;5.78;;